Time;durP1;ratioP1;P1;durP2;ratioP2;P2;SDS_P1;SDS_P2;PMS_P1;PMS_P2;Temp;Humidity;BMP_temperature;BMP_pressure;BME280_temperature;BME280_humidity;BME280_pressure;Samples;Min_cycle;Max_cycle;Signal;HPM_P1;HPM_P2
2022/06/04 00:00:43;;;;;;;4.38;2.40;;;19.20;83.90;;;;;;5052453;28;20048;-68
2022/06/04 00:03:14;;;;;;;5.25;2.45;;;19.20;83.80;;;;;;5057935;28;20045;-68
2022/06/04 00:05:43;;;;;;;4.35;2.10;;;19.20;83.90;;;;;;5058052;28;20041;-68
2022/06/04 00:08:11;;;;;;;4.85;2.30;;;19.20;83.90;;;;;;5060781;28;20045;-67
2022/06/04 00:16:12;;;;;;;4.90;2.30;;;19.10;84.00;;;;;;5061420;28;20040;-68
2022/06/04 00:18:40;;;;;;;4.30;2.60;;;19.10;84.10;;;;;;5062290;28;20063;-68
2022/06/04 00:21:08;;;;;;;4.00;2.40;;;19.10;84.30;;;;;;5062087;28;20488;-67
2022/06/04 00:23:36;;;;;;;5.00;2.60;;;19.00;84.50;;;;;;5063081;28;20072;-67
2022/06/04 00:26:07;;;;;;;3.75;2.38;;;19.00;84.50;;;;;;5061385;28;20515;-67
2022/06/04 00:28:38;;;;;;;5.10;2.38;;;19.00;84.60;;;;;;5062331;28;20045;-68
2022/06/04 00:31:05;;;;;;;4.15;2.60;;;19.00;84.80;;;;;;5043814;28;20496;-67
2022/06/04 00:33:33;;;;;;;4.93;2.67;;;19.00;84.70;;;;;;5062462;28;20461;-69
2022/06/04 00:36:01;;;;;;;6.32;2.63;;;19.00;84.70;;;;;;5061299;28;20365;-67
2022/06/04 00:38:31;;;;;;;5.15;2.90;;;19.00;84.60;;;;;;5062906;28;20078;-68
2022/06/04 00:41:24;;;;;;;4.88;2.60;;;18.90;84.50;;;;;;5060592;28;20041;-69
2022/06/04 00:44:03;;;;;;;4.13;2.58;;;19.00;84.40;;;;;;5067325;28;20639;-69
2022/06/04 00:47:07;;;;;;;3.15;2.15;;;19.00;84.50;;;;;;5081838;28;20134;-68
2022/06/04 00:49:34;;;;;;;3.78;2.33;;;18.90;84.50;;;;;;5081696;28;20052;-68
2022/06/04 00:52:02;;;;;;;5.28;3.13;;;18.90;84.60;;;;;;5078389;28;20526;-68
2022/06/04 00:54:30;;;;;;;4.25;2.67;;;18.90;84.70;;;;;;5071478;28;20400;-68
2022/06/04 00:57:07;;;;;;;5.60;2.50;;;18.80;84.80;;;;;;5079678;28;20134;-69
2022/06/04 00:59:45;;;;;;;6.65;2.47;;;18.80;84.80;;;;;;5079091;28;20058;-68
2022/06/04 01:02:22;;;;;;;7.22;2.65;;;18.80;84.70;;;;;;5071431;28;20060;-69
2022/06/04 01:05:00;;;;;;;4.90;2.65;;;18.80;84.70;;;;;;5078564;28;20667;-67
2022/06/04 01:07:49;;;;;;;5.22;2.22;;;18.90;84.60;;;;;;5078619;28;20047;-69
2022/06/04 01:10:31;;;;;;;3.45;2.30;;;18.90;84.50;;;;;;5071209;28;20067;-69
2022/06/04 01:13:08;;;;;;;4.68;2.28;;;18.90;84.40;;;;;;5079184;28;20063;-67
2022/06/04 01:15:49;;;;;;;5.10;2.30;;;18.80;84.60;;;;;;5070307;28;20044;-69
2022/06/04 01:18:27;;;;;;;6.65;2.80;;;18.80;84.60;;;;;;5075743;28;20053;-68
2022/06/04 01:21:03;;;;;;;3.53;2.38;;;18.80;84.60;;;;;;5078078;28;20043;-67
2022/06/04 01:24:00;;;;;;;6.88;3.47;;;18.80;84.70;;;;;;5068395;28;20415;-69
2022/06/04 01:26:49;;;;;;;4.38;2.58;;;18.70;84.80;;;;;;5065781;28;20145;-68
2022/06/04 01:29:19;;;;;;;4.35;2.80;;;18.70;84.80;;;;;;5078254;28;20422;-68
2022/06/04 01:31:54;;;;;;;4.18;2.63;;;18.70;84.80;;;;;;5065437;28;20460;-69
2022/06/04 01:34:26;;;;;;;6.13;3.05;;;18.70;84.90;;;;;;5080783;28;20059;-68
2022/06/04 01:36:57;;;;;;;5.38;2.97;;;18.70;85.10;;;;;;5076011;28;20044;-69
2022/06/04 01:41:03;;;;;;;4.07;2.55;;;18.70;85.10;;;;;;5078260;28;20041;-68
2022/06/04 01:42:18;;;;;;;3.90;2.72;;;18.60;85.10;;;;;;5075782;28;20044;-68
2022/06/04 01:44:48;;;;;;;5.85;2.67;;;18.60;85.10;;;;;;5061221;28;20052;-68
2022/06/04 01:47:20;;;;;;;4.82;2.85;;;18.60;85.10;;;;;;5080217;28;20032;-68
2022/06/04 01:49:53;;;;;;;4.95;2.72;;;18.60;85.20;;;;;;5080317;28;20052;-66
2022/06/04 01:52:26;;;;;;;5.43;3.00;;;18.60;85.20;;;;;;5078921;28;20054;-67
2022/06/04 01:54:56;;;;;;;4.55;2.65;;;18.60;85.10;;;;;;5079367;28;20125;-67
2022/06/04 01:57:30;;;;;;;4.32;2.85;;;18.60;85.10;;;;;;5060907;28;20047;-67
2022/06/04 02:00:01;;;;;;;6.35;2.80;;;18.60;85.20;;;;;;5079278;28;20125;-68
2022/06/04 02:02:32;;;;;;;4.75;2.85;;;18.60;85.20;;;;;;5075314;28;20036;-68
2022/06/04 02:05:05;;;;;;;5.30;2.88;;;18.60;85.10;;;;;;5079419;28;20041;-68
2022/06/04 02:07:36;;;;;;;5.22;2.45;;;18.60;85.00;;;;;;5078327;28;20074;-68
2022/06/04 02:10:11;;;;;;;6.28;2.97;;;18.70;84.80;;;;;;5079573;28;20631;-68
2022/06/04 02:12:44;;;;;;;4.80;2.97;;;18.70;84.50;;;;;;5071292;28;20410;-67
2022/06/04 02:15:15;;;;;;;5.40;2.63;;;18.60;84.50;;;;;;5077815;28;20040;-68
2022/06/04 02:17:47;;;;;;;4.53;2.70;;;18.60;84.60;;;;;;5079659;28;20483;-67
2022/06/04 02:20:18;;;;;;;5.13;2.75;;;18.60;84.80;;;;;;5076257;28;20051;-69
2022/06/04 02:22:45;;;;;;;4.07;2.70;;;18.60;84.90;;;;;;5079694;28;20052;-68
2022/06/04 02:25:15;;;;;;;4.80;2.75;;;18.60;84.90;;;;;;5062314;28;20051;-68
2022/06/04 02:27:44;;;;;;;4.40;3.08;;;18.60;84.70;;;;;;5078216;28;20036;-68
2022/06/04 02:30:13;;;;;;;4.63;2.80;;;18.60;84.80;;;;;;5078318;28;20124;-67
2022/06/04 02:32:54;;;;;;;4.43;3.00;;;18.60;84.90;;;;;;5077728;28;20040;-67
2022/06/04 02:35:26;;;;;;;4.88;2.90;;;18.60;84.90;;;;;;5077941;28;20045;-69
2022/06/04 02:37:59;;;;;;;4.70;3.20;;;18.60;84.90;;;;;;5071940;28;20060;-68
2022/06/04 02:40:30;;;;;;;4.28;3.00;;;18.50;84.90;;;;;;5077740;28;20075;-68
2022/06/04 02:43:05;;;;;;;5.78;3.20;;;18.60;85.00;;;;;;5075386;28;20115;-67
2022/06/04 02:45:36;;;;;;;4.72;2.58;;;18.60;85.00;;;;;;5074194;28;20059;-68
2022/06/04 02:48:10;;;;;;;5.07;3.47;;;18.50;85.00;;;;;;5077926;28;20562;-68
2022/06/04 02:50:41;;;;;;;6.10;2.97;;;18.40;85.00;;;;;;5075886;28;20127;-68
2022/06/04 02:53:09;;;;;;;4.25;2.67;;;18.40;85.10;;;;;;5069726;28;20530;-68
2022/06/04 02:55:40;;;;;;;5.53;2.90;;;18.40;85.10;;;;;;5071840;28;20041;-69
2022/06/04 02:58:16;;;;;;;5.78;3.05;;;18.40;85.00;;;;;;5069023;28;20400;-67
2022/06/04 03:00:45;;;;;;;4.50;2.90;;;18.40;84.90;;;;;;5067491;28;20046;-68
2022/06/04 03:03:13;;;;;;;5.07;3.00;;;18.30;84.90;;;;;;5069750;28;20884;-69
2022/06/04 03:05:55;;;;;;;4.55;2.78;;;18.30;84.90;;;;;;5077287;28;20054;-67
2022/06/04 03:08:23;;;;;;;6.05;3.03;;;18.20;85.00;;;;;;5070595;28;20363;-67
2022/06/04 03:10:50;;;;;;;4.68;3.13;;;18.20;85.00;;;;;;5077306;28;20123;-67
2022/06/04 03:13:20;;;;;;;5.45;3.25;;;18.20;84.90;;;;;;5076051;28;20148;-67
2022/06/04 03:15:47;;;;;;;;;;;18.20;84.80;;;;;;5077909;28;20046;-68
2022/06/04 03:18:15;;;;;;;5.03;3.13;;;18.20;84.80;;;;;;5073240;28;20280;-67
2022/06/04 03:20:42;;;;;;;5.97;3.20;;;18.10;84.80;;;;;;5074245;28;20094;-69
2022/06/04 03:23:09;;;;;;;6.22;3.17;;;18.10;84.90;;;;;;5078302;28;20373;-67
2022/06/04 03:25:37;;;;;;;4.40;3.10;;;18.10;84.90;;;;;;5054647;28;20052;-68
2022/06/04 03:28:05;;;;;;;4.97;3.15;;;18.10;84.70;;;;;;5069768;28;20119;-71
2022/06/04 03:30:35;;;;;;;5.68;2.70;;;18.10;84.70;;;;;;5071777;28;20044;-69
2022/06/04 03:33:02;;;;;;;5.85;3.00;;;18.10;84.60;;;;;;5068728;28;20072;-69
2022/06/04 03:35:29;;;;;;;5.07;3.10;;;18.20;84.50;;;;;;5072155;28;20040;-69
2022/06/04 03:37:56;;;;;;;5.82;2.85;;;18.20;84.60;;;;;;5077772;28;20036;-69
2022/06/04 03:40:23;;;;;;;5.22;3.22;;;18.20;84.70;;;;;;5071608;28;20043;-68
2022/06/04 03:42:50;;;;;;;4.78;3.22;;;18.10;84.80;;;;;;5078576;28;20043;-69
2022/06/04 03:45:17;;;;;;;5.32;3.17;;;18.10;84.80;;;;;;5071316;28;20059;-67
2022/06/04 03:47:46;;;;;;;6.75;3.53;;;18.10;84.80;;;;;;5079759;28;20518;-68
2022/06/04 03:50:15;;;;;;;4.75;3.17;;;18.10;84.90;;;;;;5077587;28;20047;-69
2022/06/04 03:52:43;;;;;;;5.18;3.58;;;18.10;84.90;;;;;;5077682;28;20132;-69
2022/06/04 03:55:12;;;;;;;4.65;3.30;;;18.10;84.90;;;;;;5076429;28;20070;-70
2022/06/04 03:57:44;;;;;;;5.30;3.40;;;18.00;84.90;;;;;;5077704;28;20040;-68
2022/06/04 04:00:19;;;;;;;5.97;3.20;;;18.10;84.90;;;;;;5072677;28;20453;-69
2022/06/04 04:02:51;;;;;;;4.95;3.50;;;18.10;84.90;;;;;;5078587;28;20052;-69
2022/06/04 04:05:20;;;;;;;5.90;3.65;;;18.10;84.90;;;;;;5074994;28;20491;-67
2022/06/04 04:07:47;;;;;;;6.32;3.72;;;18.10;84.90;;;;;;5078918;28;20048;-68
2022/06/04 04:10:15;;;;;;;4.88;3.42;;;18.00;85.00;;;;;;5069759;28;20055;-69
2022/06/04 04:12:42;;;;;;;5.20;3.30;;;18.10;85.10;;;;;;5073743;28;20052;-68
2022/06/04 04:15:11;;;;;;;5.25;3.00;;;18.00;85.20;;;;;;5074682;28;20480;-69
2022/06/04 04:17:39;;;;;;;4.38;2.97;;;18.00;85.10;;;;;;5076227;28;20032;-69
2022/06/04 04:20:12;;;;;;;7.05;3.92;;;18.10;85.20;;;;;;5075598;28;20045;-67
2022/06/04 04:22:39;;;;;;;5.03;3.33;;;18.00;85.10;;;;;;5076790;28;20523;-68
2022/06/04 04:25:07;;;;;;;7.53;3.47;;;18.00;85.20;;;;;;5073730;28;20094;-68
2022/06/04 04:27:34;;;;;;;5.82;3.20;;;18.10;85.30;;;;;;5078151;28;20086;-69
2022/06/04 04:30:01;;;;;;;4.75;3.25;;;18.10;85.20;;;;;;5075815;28;20098;-69
2022/06/04 04:32:28;;;;;;;7.28;3.75;;;18.10;85.10;;;;;;5073444;28;20403;-69
2022/06/04 04:34:55;;;;;;;5.00;3.13;;;18.20;84.90;;;;;;5076777;28;20128;-69
2022/06/04 04:37:23;;;;;;;7.28;3.78;;;18.20;85.00;;;;;;5070245;28;20554;-69
2022/06/04 04:39:51;;;;;;;6.15;3.85;;;18.10;85.00;;;;;;5075371;28;20047;-68
2022/06/04 04:42:19;;;;;;;6.15;3.40;;;18.10;85.10;;;;;;5074277;28;20496;-69
2022/06/04 04:44:47;;;;;;;6.82;3.83;;;18.10;85.10;;;;;;5072351;28;20049;-69
2022/06/04 04:47:14;;;;;;;5.40;3.28;;;18.10;85.10;;;;;;5051766;28;20100;-67
2022/06/04 04:49:40;;;;;;;5.53;3.47;;;18.20;85.10;;;;;;5073865;28;20066;-67
2022/06/04 04:52:08;;;;;;;8.68;3.60;;;18.10;85.20;;;;;;5077580;28;20047;-70
2022/06/04 04:54:37;;;;;;;7.70;3.55;;;18.10;85.20;;;;;;5079288;28;20416;-70
2022/06/04 04:57:04;;;;;;;5.72;3.40;;;18.10;85.20;;;;;;5079069;28;20044;-67
2022/06/04 04:59:31;;;;;;;4.88;3.40;;;18.10;85.30;;;;;;5080451;28;20052;-67
2022/06/04 05:01:58;;;;;;;6.68;3.35;;;18.10;85.20;;;;;;5065480;28;20381;-68
2022/06/04 05:04:25;;;;;;;5.80;3.40;;;18.10;85.30;;;;;;5078291;28;20123;-68
2022/06/04 05:06:52;;;;;;;5.53;3.35;;;18.20;85.30;;;;;;5071913;28;20048;-69
2022/06/04 05:09:19;;;;;;;5.50;3.13;;;18.10;85.30;;;;;;5074586;28;20062;-68
2022/06/04 05:11:48;;;;;;;5.65;2.97;;;18.10;85.30;;;;;;5067383;28;20454;-67
2022/06/04 05:14:15;;;;;;;5.50;3.50;;;18.10;85.20;;;;;;5070246;28;20055;-68
2022/06/04 05:16:42;;;;;;;6.03;4.18;;;18.20;85.20;;;;;;5067357;28;20053;-68
2022/06/04 05:19:09;;;;;;;6.90;4.18;;;18.20;85.10;;;;;;5067512;28;20040;-68
2022/06/04 05:21:40;;;;;;;5.53;3.67;;;18.30;85.10;;;;;;5066812;28;20680;-69
2022/06/04 05:24:08;;;;;;;7.15;4.40;;;18.30;85.10;;;;;;5061679;28;20049;-67
2022/06/04 05:26:35;;;;;;;7.78;4.82;;;18.40;85.00;;;;;;5070303;28;20055;-68
2022/06/04 05:29:04;;;;;;;6.90;4.65;;;18.40;84.90;;;;;;5068567;28;20044;-67
2022/06/04 05:31:30;;;;;;;9.00;4.78;;;18.50;85.10;;;;;;5070974;28;20074;-68
2022/06/04 05:33:58;;;;;;;7.75;5.38;;;18.50;85.10;;;;;;5070664;28;20040;-68
2022/06/04 05:36:25;;;;;;;8.27;5.05;;;18.60;85.10;;;;;;5074262;28;20127;-67
2022/06/04 05:38:52;;;;;;;8.32;5.45;;;18.60;84.90;;;;;;5073850;28;20510;-69
2022/06/04 05:41:19;;;;;;;10.07;5.22;;;18.60;84.70;;;;;;5069058;28;20036;-67
2022/06/04 05:43:46;;;;;;;9.85;5.63;;;18.70;84.70;;;;;;5071534;28;20105;-67
2022/06/04 05:46:19;;;;;;;9.90;5.57;;;18.70;84.80;;;;;;5074683;28;20047;-69
2022/06/04 05:48:47;;;;;;;8.85;5.93;;;18.80;84.70;;;;;;5078780;28;20500;-67
2022/06/04 05:51:17;;;;;;;8.27;5.13;;;18.80;84.70;;;;;;5073893;28;20126;-67
2022/06/04 05:53:45;;;;;;;8.82;5.50;;;18.80;84.70;;;;;;5069989;28;20052;-68
2022/06/04 05:56:13;;;;;;;7.50;5.47;;;18.90;84.60;;;;;;5051436;28;20048;-68
2022/06/04 05:58:41;;;;;;;8.55;5.78;;;18.90;84.40;;;;;;5066419;28;20554;-67
2022/06/04 06:01:08;;;;;;;8.10;5.40;;;18.90;84.30;;;;;;5067970;28;20068;-67
2022/06/04 06:03:36;;;;;;;7.05;5.03;;;18.90;84.30;;;;;;5070599;28;20044;-69
2022/06/04 06:06:03;;;;;;;8.30;5.88;;;18.90;84.50;;;;;;5070018;28;20044;-69
2022/06/04 06:08:30;;;;;;;7.57;4.97;;;18.90;84.40;;;;;;5068624;28;20048;-68
2022/06/04 06:10:58;;;;;;;7.75;5.47;;;19.00;84.50;;;;;;5070036;28;20044;-68
2022/06/04 06:13:25;;;;;;;10.82;5.65;;;19.00;84.60;;;;;;5065967;28;20060;-68
2022/06/04 06:15:52;;;;;;;7.75;5.60;;;19.00;84.70;;;;;;5065390;28;20124;-70
2022/06/04 06:18:19;;;;;;;7.50;5.20;;;19.00;84.60;;;;;;5045634;28;20056;-69
2022/06/04 06:20:48;;;;;;;7.40;4.97;;;19.10;84.60;;;;;;5068121;28;20091;-68
2022/06/04 06:23:14;;;;;;;10.82;5.47;;;19.10;84.50;;;;;;5063849;28;20040;-67
2022/06/04 06:25:41;;;;;;;9.40;5.38;;;19.20;84.50;;;;;;5063818;28;20045;-68
2022/06/04 06:28:08;;;;;;;10.60;5.97;;;19.30;83.90;;;;;;5066914;28;20040;-69
2022/06/04 06:30:36;;;;;;;10.15;5.70;;;19.30;83.80;;;;;;5065974;28;20126;-68
2022/06/04 06:33:03;;;;;;;10.23;6.13;;;19.40;83.60;;;;;;5057507;28;20389;-69
2022/06/04 06:35:30;;;;;;;9.07;5.88;;;19.50;83.20;;;;;;5075448;28;20384;-69
2022/06/04 06:37:58;;;;;;;7.50;5.28;;;19.60;83.10;;;;;;5071352;28;20037;-67
2022/06/04 06:40:25;;;;;;;9.32;5.15;;;19.60;82.90;;;;;;5053742;28;20049;-66
2022/06/04 06:42:52;;;;;;;8.40;5.18;;;19.70;82.80;;;;;;5060402;28;20044;-68
2022/06/04 06:45:20;;;;;;;8.18;4.72;;;19.70;82.50;;;;;;5066997;28;20067;-68
2022/06/04 06:47:47;;;;;;;9.73;5.30;;;19.90;82.40;;;;;;5067532;28;20040;-68
2022/06/04 06:50:16;;;;;;;7.40;4.90;;;19.90;82.40;;;;;;5065745;28;20541;-69
2022/06/04 06:52:44;;;;;;;7.18;5.13;;;20.10;82.00;;;;;;5065907;28;20036;-69
2022/06/04 06:55:12;;;;;;;8.13;4.85;;;20.10;82.20;;;;;;5069520;28;20044;-68
2022/06/04 06:57:39;;;;;;;7.43;5.35;;;20.20;81.80;;;;;;5072985;28;20055;-69
2022/06/04 07:00:07;;;;;;;7.50;4.75;;;20.30;81.70;;;;;;5061892;28;20051;-67
2022/06/04 07:02:34;;;;;;;7.38;4.43;;;20.40;81.50;;;;;;5068806;28;20052;-68
2022/06/04 07:05:01;;;;;;;8.32;4.68;;;20.60;81.70;;;;;;5069839;28;20041;-68
2022/06/04 07:07:29;;;;;;;7.65;4.85;;;20.60;81.10;;;;;;5069843;28;20039;-68
2022/06/04 07:09:56;;;;;;;6.32;4.20;;;20.70;81.20;;;;;;5069593;28;20048;-68
2022/06/04 07:12:24;;;;;;;6.75;4.18;;;20.80;81.20;;;;;;5066873;28;20102;-70
2022/06/04 07:14:51;;;;;;;5.45;3.78;;;20.90;81.40;;;;;;5063542;28;20057;-69
2022/06/04 07:17:18;;;;;;;6.40;3.78;;;21.00;80.60;;;;;;5063026;28;20051;-69
2022/06/04 07:19:45;;;;;;;4.78;3.55;;;21.10;80.90;;;;;;5067429;28;20497;-69
2022/06/04 07:22:12;;;;;;;5.63;3.35;;;21.10;81.00;;;;;;5066130;28;20515;-69
2022/06/04 07:24:39;;;;;;;5.78;3.55;;;21.30;80.50;;;;;;5069492;28;20496;-67
2022/06/04 07:27:08;;;;;;;5.03;3.35;;;21.30;79.40;;;;;;5066127;28;20052;-69
2022/06/04 07:29:37;;;;;;;4.47;2.83;;;21.40;79.40;;;;;;5066925;28;20044;-70
2022/06/04 07:32:05;;;;;;;4.45;2.75;;;21.40;79.60;;;;;;5070830;28;20055;-68
2022/06/04 07:34:32;;;;;;;4.43;2.97;;;21.50;79.20;;;;;;5070222;28;22905;-68
2022/06/04 07:36:59;;;;;;;4.38;2.92;;;21.60;79.10;;;;;;5068863;28;20423;-69
2022/06/04 07:39:26;;;;;;;6.68;2.97;;;21.60;79.60;;;;;;5062017;28;20540;-69
2022/06/04 07:41:54;;;;;;;4.88;3.20;;;21.70;79.00;;;;;;5067662;28;20064;-68
2022/06/04 07:44:25;;;;;;;4.70;2.92;;;21.70;78.10;;;;;;5066500;28;20052;-68
2022/06/04 07:46:54;;;;;;;5.38;3.10;;;21.70;78.10;;;;;;5068583;28;20406;-68
2022/06/04 07:49:22;;;;;;;5.65;3.10;;;21.80;78.40;;;;;;5065067;28;20387;-69
2022/06/04 07:51:50;;;;;;;5.60;2.60;;;21.80;77.90;;;;;;5045854;28;20315;-67
2022/06/04 07:54:18;;;;;;;5.30;2.78;;;21.90;78.00;;;;;;5065134;28;20049;-69
2022/06/04 07:56:45;;;;;;;4.30;2.85;;;21.90;78.40;;;;;;5064556;28;20039;-68
2022/06/04 07:59:16;;;;;;;3.38;2.33;;;22.00;77.70;;;;;;5066745;28;20488;-67
2022/06/04 08:01:43;;;;;;;4.82;2.50;;;22.00;78.10;;;;;;5062608;28;20049;-69
2022/06/04 08:04:12;;;;;;;4.45;3.22;;;22.00;78.40;;;;;;5069280;28;20495;-67
2022/06/04 08:06:39;;;;;;;4.60;2.70;;;22.10;77.50;;;;;;5064179;28;20041;-67
2022/06/04 08:09:07;;;;;;;4.93;2.45;;;22.10;77.10;;;;;;5063145;28;20457;-67
2022/06/04 08:11:36;;;;;;;3.60;2.38;;;22.10;77.00;;;;;;5052681;28;20048;-69
2022/06/04 08:14:09;;;;;;;4.33;2.50;;;22.10;76.90;;;;;;5069670;28;20036;-69
2022/06/04 08:16:39;;;;;;;4.65;2.50;;;22.10;76.90;;;;;;5064971;28;20466;-68
2022/06/04 08:19:06;;;;;;;;;;;22.10;76.60;;;;;;5070609;28;20549;-70
2022/06/04 08:21:36;;;;;;;3.25;2.17;;;22.10;76.50;;;;;;5069530;28;19929;-68
2022/06/04 08:24:04;;;;;;;3.28;2.20;;;22.10;76.90;;;;;;5073888;28;20513;-68
2022/06/04 08:26:32;;;;;;;3.42;2.20;;;22.10;76.30;;;;;;5070043;28;20062;-67
2022/06/04 08:28:59;;;;;;;5.82;2.10;;;22.10;76.20;;;;;;5070254;28;20526;-68
2022/06/04 08:31:27;;;;;;;3.28;2.28;;;22.10;75.70;;;;;;5081043;28;20071;-67
2022/06/04 08:33:55;;;;;;;3.55;2.28;;;22.10;75.50;;;;;;5081326;28;20059;-68
2022/06/04 08:36:22;;;;;;;3.88;2.03;;;22.10;75.40;;;;;;5064812;28;20048;-69
2022/06/04 08:38:50;;;;;;;3.20;2.20;;;22.10;75.20;;;;;;5066962;28;20130;-69
2022/06/04 08:41:25;;;;;;;3.90;1.90;;;22.10;75.80;;;;;;5072224;28;20115;-69
2022/06/04 08:43:58;;;;;;;3.50;1.92;;;22.10;75.30;;;;;;5065677;28;20492;-68
2022/06/04 08:46:31;;;;;;;3.45;2.13;;;22.10;75.40;;;;;;5075805;28;20150;-68
2022/06/04 08:49:03;;;;;;;3.35;1.98;;;22.10;75.60;;;;;;5070323;28;20051;-69
2022/06/04 08:51:30;;;;;;;2.60;1.75;;;22.20;75.50;;;;;;5071425;28;20715;-67
2022/06/04 08:57:32;;;;;;;3.85;2.28;;;22.30;75.20;;;;;;5073514;28;20040;-67
2022/06/04 08:59:41;;;;;;;3.30;2.13;;;22.40;75.40;;;;;;5067280;28;20048;-68
2022/06/04 09:02:17;;;;;;;4.85;2.70;;;22.50;75.20;;;;;;5072644;28;20131;-68
2022/06/04 09:04:55;;;;;;;2.97;2.10;;;22.60;75.40;;;;;;5064742;28;20047;-69
2022/06/04 09:07:27;;;;;;;3.60;2.50;;;22.60;74.70;;;;;;5066818;28;20049;-68
2022/06/04 09:10:03;;;;;;;3.45;2.30;;;22.70;74.90;;;;;;5064692;28;20028;-70
2022/06/04 09:12:37;;;;;;;4.40;2.78;;;22.80;74.50;;;;;;5065120;28;20581;-69
2022/06/04 09:15:13;;;;;;;3.83;2.40;;;22.90;74.80;;;;;;5067542;28;20044;-68
2022/06/04 09:17:43;;;;;;;6.45;2.58;;;22.90;74.70;;;;;;5063239;28;20840;-68
2022/06/04 09:20:21;;;;;;;5.10;2.63;;;22.90;73.70;;;;;;5073456;28;20145;-69
2022/06/04 09:22:49;;;;;;;6.50;2.97;;;22.90;74.50;;;;;;5071446;28;20052;-68
2022/06/04 09:25:23;;;;;;;7.45;3.42;;;22.90;74.00;;;;;;5066710;28;20045;-69
2022/06/04 09:27:59;;;;;;;3.83;2.72;;;23.00;73.30;;;;;;5064851;28;20075;-69
2022/06/04 09:30:31;;;;;;;3.63;1.85;;;23.00;73.20;;;;;;5070189;28;20492;-69
2022/06/04 09:33:14;;;;;;;4.30;2.55;;;23.10;72.70;;;;;;5066895;28;20063;-69
2022/06/04 09:35:42;;;;;;;3.58;2.58;;;23.10;72.80;;;;;;5071413;28;20059;-69
2022/06/04 09:38:23;;;;;;;3.17;2.05;;;23.10;72.70;;;;;;5063138;28;20076;-68
2022/06/04 09:40:59;;;;;;;5.15;2.47;;;23.10;70.60;;;;;;5065425;28;20046;-69
2022/06/04 09:43:27;;;;;;;4.40;2.67;;;23.20;71.90;;;;;;5067859;28;20047;-69
2022/06/04 09:45:56;;;;;;;4.57;2.63;;;23.20;72.60;;;;;;5072261;28;20368;-68
2022/06/04 09:48:26;;;;;;;4.55;2.40;;;23.30;72.50;;;;;;5071585;28;20041;-67
2022/06/04 09:50:55;;;;;;;5.32;2.10;;;23.30;70.60;;;;;;5073211;28;20055;-68
2022/06/04 09:53:25;;;;;;;3.03;2.00;;;23.30;70.50;;;;;;5071646;28;20132;-68
2022/06/04 09:55:56;;;;;;;4.35;2.08;;;23.30;68.40;;;;;;5070439;28;20044;-69
2022/06/04 09:58:29;;;;;;;4.78;2.20;;;23.40;68.40;;;;;;5074040;28;20411;-69
2022/06/04 10:01:00;;;;;;;4.10;2.30;;;23.40;68.10;;;;;;5068727;28;20052;-70
2022/06/04 10:03:30;;;;;;;2.80;2.00;;;23.50;69.80;;;;;;5065107;28;20095;-69
2022/06/04 10:06:03;;;;;;;5.85;2.50;;;23.50;69.50;;;;;;5070807;28;20495;-69
2022/06/04 10:09:54;;;;;;;3.88;2.28;;;23.60;70.90;;;;;;5070102;28;20430;-68
2022/06/04 10:11:22;;;;;;;4.60;2.38;;;23.60;70.00;;;;;;5069117;28;20056;-68
2022/06/04 10:13:53;;;;;;;3.80;2.40;;;23.60;67.40;;;;;;5073306;28;20041;-69
2022/06/04 10:16:22;;;;;;;2.78;1.95;;;23.70;67.70;;;;;;5073039;28;20460;-67
2022/06/04 10:18:58;;;;;;;4.25;2.38;;;23.70;68.00;;;;;;5071879;28;20056;-69
2022/06/04 10:21:29;;;;;;;4.07;2.50;;;23.80;69.30;;;;;;5069638;28;20050;-68
2022/06/04 10:23:58;;;;;;;4.28;2.63;;;23.80;68.00;;;;;;5069124;28;20048;-69
2022/06/04 10:26:40;;;;;;;5.95;3.30;;;23.80;69.40;;;;;;5053736;28;20042;-68
2022/06/04 10:29:39;;;;;;;4.03;2.63;;;23.80;69.10;;;;;;5068087;28;20110;-69
2022/06/04 10:32:17;;;;;;;4.40;3.22;;;23.80;69.50;;;;;;5072904;28;20094;-70
2022/06/04 10:34:50;;;;;;;5.20;3.38;;;23.90;70.10;;;;;;5065127;28;20139;-67
2022/06/04 10:37:28;;;;;;;5.25;3.33;;;23.90;70.10;;;;;;5067604;28;20048;-69
2022/06/04 10:40:08;;;;;;;4.63;2.70;;;23.90;69.90;;;;;;5068201;28;20040;-69
2022/06/04 10:42:46;;;;;;;4.38;2.75;;;23.90;68.30;;;;;;5071827;28;20044;-68
2022/06/04 10:45:23;;;;;;;5.20;2.90;;;23.90;69.00;;;;;;5069059;28;20056;-68
2022/06/04 10:47:55;;;;;;;4.75;2.90;;;23.90;68.90;;;;;;5068250;28;20052;-69
2022/06/04 10:51:25;;;;;;;3.90;2.65;;;23.90;69.50;;;;;;5073225;28;20046;-68
2022/06/04 10:53:35;;;;;;;3.47;2.45;;;24.00;69.30;;;;;;5070535;28;20048;-69
2022/06/04 10:56:07;;;;;;;4.15;2.63;;;24.00;68.40;;;;;;5071005;28;20507;-68
2022/06/04 10:58:40;;;;;;;3.83;2.28;;;24.00;68.10;;;;;;5069238;28;20075;-69
2022/06/04 11:01:14;;;;;;;4.05;2.30;;;24.00;67.30;;;;;;5062474;28;20036;-69
2022/06/04 11:03:49;;;;;;;4.38;2.50;;;24.00;67.60;;;;;;5065220;28;20458;-68
2022/06/04 11:06:21;;;;;;;3.05;2.05;;;24.00;67.00;;;;;;5066912;28;20055;-68
2022/06/04 11:08:54;;;;;;;3.75;2.30;;;24.00;66.40;;;;;;5064371;28;20049;-70
2022/06/04 11:11:27;;;;;;;3.55;2.10;;;24.10;66.90;;;;;;5066030;28;20671;-69
2022/06/04 11:13:57;;;;;;;3.13;2.08;;;24.10;66.60;;;;;;5061650;28;20068;-70
2022/06/04 11:16:32;;;;;;;3.38;2.10;;;24.10;65.70;;;;;;5067911;28;20040;-70
2022/06/04 11:19:07;;;;;;;3.17;1.75;;;24.10;65.20;;;;;;5071695;28;20585;-68
2022/06/04 11:21:39;;;;;;;3.00;2.10;;;24.20;65.60;;;;;;5067865;28;20179;-69
2022/06/04 11:24:15;;;;;;;5.10;2.20;;;24.30;65.00;;;;;;5045299;28;20048;-69
2022/06/04 11:26:46;;;;;;;2.95;1.98;;;24.30;64.90;;;;;;5064876;28;20051;-69
2022/06/04 11:29:14;;;;;;;2.45;1.83;;;24.40;64.90;;;;;;5065606;28;20036;-68
2022/06/04 11:32:04;;;;;;;3.25;2.15;;;24.50;64.40;;;;;;5062507;28;20416;-69
2022/06/04 11:35:03;;;;;;;4.28;2.03;;;24.60;65.30;;;;;;5064788;28;20139;-68
2022/06/04 11:37:35;;;;;;;;;;;24.60;64.70;;;;;;5068614;28;20602;-70
2022/06/04 11:40:21;;;;;;;2.28;1.70;;;24.60;64.00;;;;;;5069365;28;19932;-68
2022/06/04 11:42:56;;;;;;;4.07;1.95;;;24.60;64.30;;;;;;5070513;28;20052;-69
2022/06/04 11:45:57;;;;;;;3.22;2.10;;;24.60;63.30;;;;;;5037767;28;20044;-69
2022/06/04 11:48:43;;;;;;;3.53;2.05;;;24.60;63.20;;;;;;5016250;28;20132;-68
2022/06/04 11:51:26;;;;;;;3.08;2.05;;;24.60;62.30;;;;;;5035766;28;20041;-70
2022/06/04 11:53:57;;;;;;;3.28;2.00;;;24.60;62.20;;;;;;5014942;28;20417;-69
2022/06/04 11:56:34;;;;;;;4.63;2.20;;;24.60;63.40;;;;;;5035109;28;20052;-69
2022/06/04 11:59:34;;;;;;;3.55;2.10;;;24.60;62.50;;;;;;5031977;28;20049;-69
2022/06/04 12:02:11;;;;;;;3.25;1.85;;;24.60;63.30;;;;;;5025524;28;20056;-68
2022/06/04 12:04:43;;;;;;;2.80;1.85;;;24.60;61.90;;;;;;5034182;28;20049;-68
2022/06/04 12:07:16;;;;;;;2.47;1.65;;;24.60;61.50;;;;;;5036216;28;20073;-69
2022/06/04 12:09:50;;;;;;;3.83;2.20;;;24.60;61.40;;;;;;5040144;28;20041;-69
2022/06/04 12:12:24;;;;;;;2.78;2.00;;;24.60;62.60;;;;;;5043081;28;20397;-69
2022/06/04 12:14:57;;;;;;;4.22;2.15;;;24.60;62.20;;;;;;5042302;28;20140;-69
2022/06/04 12:17:27;;;;;;;5.32;2.80;;;24.60;62.40;;;;;;5041934;28;20068;-68
2022/06/04 12:25:44;;;;;;;4.75;2.05;;;24.60;62.40;;;;;;5038339;28;20512;-67
2022/06/04 12:28:22;;;;;;;;;;;24.60;61.80;;;;;;5036797;28;20049;-69
2022/06/04 12:30:49;;;;;;;2.78;1.85;;;24.70;61.40;;;;;;5032466;28;20470;-69
2022/06/04 12:33:36;;;;;;;3.30;2.05;;;24.70;62.30;;;;;;5034378;28;20065;-68
2022/06/04 12:36:06;;;;;;;3.55;2.08;;;24.70;61.50;;;;;;5036144;28;20041;-68
2022/06/04 12:38:37;;;;;;;4.20;2.25;;;24.70;61.10;;;;;;5037442;28;20592;-67
2022/06/04 12:41:11;;;;;;;3.00;1.92;;;24.70;60.80;;;;;;5038976;28;20079;-68
2022/06/04 12:43:41;;;;;;;3.03;2.05;;;24.80;61.60;;;;;;5046569;28;20086;-68
2022/06/04 12:46:15;;;;;;;4.90;2.53;;;24.90;60.80;;;;;;5071174;28;20043;-69
2022/06/04 12:48:52;;;;;;;4.55;2.60;;;24.90;62.10;;;;;;5063495;28;20507;-68
2022/06/04 12:51:43;;;;;;;3.42;2.30;;;25.00;61.40;;;;;;5067363;28;20037;-69
2022/06/04 12:54:31;;;;;;;3.15;2.25;;;25.10;61.40;;;;;;5065516;28;20040;-69
2022/06/04 12:57:05;;;;;;;3.03;1.97;;;25.10;60.10;;;;;;5064747;28;20513;-69
2022/06/04 12:59:40;;;;;;;3.33;2.03;;;25.10;59.70;;;;;;5051429;28;20478;-70
2022/06/04 13:02:29;;;;;;;2.75;1.95;;;25.10;60.00;;;;;;5063160;28;20516;-68
2022/06/04 13:05:15;;;;;;;3.72;2.40;;;25.10;61.10;;;;;;5072267;28;20040;-69
2022/06/04 13:07:55;;;;;;;4.10;2.25;;;25.10;61.20;;;;;;5073332;28;20048;-69
2022/06/04 13:10:29;;;;;;;4.47;2.80;;;25.20;60.90;;;;;;5072754;28;20040;-68
2022/06/04 13:13:02;;;;;;;3.58;2.40;;;25.20;60.50;;;;;;5071943;28;20119;-69
2022/06/04 13:15:41;;;;;;;5.05;2.92;;;25.30;60.50;;;;;;5072844;28;20502;-70
2022/06/04 13:18:20;;;;;;;4.53;2.88;;;25.30;60.80;;;;;;5067141;28;20586;-69
2022/06/04 13:20:50;;;;;;;4.50;2.42;;;25.30;61.10;;;;;;5069477;28;20589;-69
2022/06/04 13:23:29;;;;;;;4.20;2.50;;;25.30;59.70;;;;;;5068473;28;20040;-69
2022/06/04 13:26:30;;;;;;;4.85;2.78;;;25.30;60.10;;;;;;5080095;28;20122;-69